Time;durP1;ratioP1;P1;durP2;ratioP2;P2;SDS_P1;SDS_P2;PMS_P1;PMS_P2;Temp;Humidity;BMP_temperature;BMP_pressure;BME280_temperature;BME280_humidity;BME280_pressure;Samples;Min_cycle;Max_cycle;Signal;HPM_P1;HPM_P2
2021/04/25 00:01:43;;;;;;;3.35;1.75;;;10.50;99.90;;;;;;5050380;28;20116;-80
2021/04/25 00:04:10;;;;;;;3.17;2.20;;;10.80;99.90;;;;;;5050257;28;20029;-79
2021/04/25 00:06:36;;;;;;;3.30;2.20;;;10.90;99.90;;;;;;5050276;28;20070;-80
2021/04/25 00:09:03;;;;;;;5.32;3.78;;;10.50;99.90;;;;;;5051549;28;20024;-80
2021/04/25 00:11:29;;;;;;;6.35;3.42;;;10.10;99.90;;;;;;5050315;28;20402;-80
2021/04/25 00:13:55;;;;;;;6.30;3.95;;;10.30;99.90;;;;;;5046420;28;20028;-80
2021/04/25 00:16:22;;;;;;;6.75;3.20;;;10.40;99.90;;;;;;5034837;28;20029;-80
2021/04/25 00:18:48;;;;;;;5.68;3.25;;;10.40;99.90;;;;;;5063460;28;20032;-80
2021/04/25 00:21:14;;;;;;;6.28;3.63;;;10.60;99.90;;;;;;5031129;28;20394;-80
2021/04/25 00:23:40;;;;;;;4.43;2.95;;;10.70;99.90;;;;;;5031339;28;20565;-80
2021/04/25 00:26:06;;;;;;;3.10;2.63;;;10.90;99.90;;;;;;5031538;28;20045;-80
2021/04/25 00:28:32;;;;;;;4.25;2.70;;;10.90;99.90;;;;;;5031333;28;20406;-80
2021/04/25 00:30:57;;;;;;;3.88;2.72;;;10.90;99.90;;;;;;5042973;28;20029;-80
2021/04/25 00:33:23;;;;;;;4.38;3.10;;;10.60;99.90;;;;;;5051318;28;20509;-80
2021/04/25 00:35:49;;;;;;;2.95;2.45;;;10.40;99.90;;;;;;5051169;28;20036;-80
2021/04/25 00:38:15;;;;;;;2.85;2.55;;;10.30;99.90;;;;;;5049985;28;20029;-80
2021/04/25 00:40:40;;;;;;;2.60;2.40;;;10.50;99.90;;;;;;5031739;28;20030;-80
2021/04/25 00:43:06;;;;;;;3.53;2.70;;;10.60;99.90;;;;;;5031181;28;20079;-80
2021/04/25 00:45:32;;;;;;;2.75;2.55;;;10.70;99.90;;;;;;5030647;28;20026;-80
2021/04/25 00:47:58;;;;;;;2.67;2.00;;;10.70;99.90;;;;;;5030246;28;20061;-80
2021/04/25 00:50:25;;;;;;;3.55;2.00;;;10.40;99.90;;;;;;5031117;28;20037;-80
2021/04/25 00:52:54;;;;;;;3.03;2.03;;;10.20;99.90;;;;;;5029620;28;20025;-80
2021/04/25 00:55:23;;;;;;;2.60;2.40;;;10.40;99.90;;;;;;5031370;28;20029;-80
2021/04/25 00:57:48;;;;;;;4.85;2.10;;;10.50;99.90;;;;;;5031088;28;20518;-80
2021/04/25 01:00:15;;;;;;;3.05;1.75;;;10.50;99.90;;;;;;5032309;28;20120;-80
2021/04/25 01:02:41;;;;;;;2.80;1.90;;;10.60;99.90;;;;;;5034702;28;20034;-80
2021/04/25 01:05:10;;;;;;;2.40;2.08;;;10.60;99.90;;;;;;5034925;28;20440;-80
2021/04/25 01:07:36;;;;;;;2.23;2.03;;;10.60;99.90;;;;;;5034429;28;20022;-80
2021/04/25 01:10:03;;;;;;;3.13;1.77;;;10.60;99.90;;;;;;5034370;28;20051;-80
2021/04/25 01:12:29;;;;;;;3.10;2.15;;;10.70;99.90;;;;;;5034350;28;20437;-80
2021/04/25 01:14:55;;;;;;;3.78;2.20;;;10.70;99.90;;;;;;5048560;28;20029;-80
2021/04/25 01:17:21;;;;;;;3.28;2.05;;;10.50;99.90;;;;;;5044612;28;20361;-80
2021/04/25 01:19:47;;;;;;;3.67;2.20;;;10.20;99.90;;;;;;5035155;28;20064;-80
2021/04/25 01:22:13;;;;;;;3.45;2.58;;;10.10;99.90;;;;;;5036051;28;20038;-80
2021/04/25 01:24:38;;;;;;;3.40;2.05;;;10.20;99.90;;;;;;5047159;28;20075;-80
2021/04/25 01:27:05;;;;;;;4.53;1.95;;;10.20;99.90;;;;;;5044549;28;20158;-79
2021/04/25 01:29:32;;;;;;;2.88;2.30;;;10.30;99.90;;;;;;5048277;28;20029;-79
2021/04/25 01:31:58;;;;;;;2.83;2.38;;;10.30;99.90;;;;;;5053807;28;20049;-80
2021/04/25 01:34:23;;;;;;;2.50;2.30;;;10.10;99.90;;;;;;5038675;28;20049;-80
2021/04/25 01:36:51;;;;;;;5.03;2.50;;;9.90;99.90;;;;;;5042157;28;20021;-80
2021/04/25 01:39:17;;;;;;;3.22;2.20;;;9.90;99.90;;;;;;5044686;28;20120;-80
2021/04/25 01:41:43;;;;;;;4.32;2.05;;;9.80;99.90;;;;;;5044861;28;20021;-80
2021/04/25 01:44:09;;;;;;;2.45;2.22;;;9.70;99.90;;;;;;5043307;28;20037;-80
2021/04/25 01:46:35;;;;;;;6.30;2.08;;;9.70;99.90;;;;;;5041807;28;20100;-79
2021/04/25 01:49:01;;;;;;;4.78;3.13;;;9.60;99.90;;;;;;5041561;28;20112;-79
2021/04/25 01:51:26;;;;;;;4.97;2.90;;;9.40;99.90;;;;;;5041617;28;20022;-80
2021/04/25 01:53:52;;;;;;;3.20;2.90;;;9.60;99.90;;;;;;5041594;28;20033;-80
2021/04/25 01:56:18;;;;;;;5.53;3.10;;;10.00;99.90;;;;;;5043243;28;20043;-79
2021/04/25 01:58:44;;;;;;;4.03;3.40;;;10.20;99.90;;;;;;5044913;28;20040;-79
2021/04/25 02:01:10;;;;;;;2.33;2.15;;;10.20;99.90;;;;;;5035666;28;20132;-79
2021/04/25 02:03:36;;;;;;;3.85;2.75;;;10.10;99.90;;;;;;5033596;28;20049;-80
2021/04/25 02:06:02;;;;;;;3.72;3.30;;;9.90;99.90;;;;;;5033424;28;20546;-80
2021/04/25 02:08:28;;;;;;;2.67;2.45;;;9.80;99.90;;;;;;5041478;28;20041;-80
2021/04/25 02:10:54;;;;;;;3.13;2.30;;;9.50;99.90;;;;;;5052957;28;20112;-80
2021/04/25 02:13:20;;;;;;;3.75;1.98;;;9.10;99.90;;;;;;5052355;28;20104;-80
2021/04/25 02:15:46;;;;;;;2.72;2.00;;;8.90;99.90;;;;;;5053082;28;20491;-80
2021/04/25 02:18:12;;;;;;;6.30;2.28;;;9.20;99.90;;;;;;5053167;28;20104;-80
2021/04/25 02:20:38;;;;;;;6.53;2.08;;;9.60;99.90;;;;;;5052788;28;20109;-80
2021/04/25 02:23:04;;;;;;;4.82;2.00;;;9.70;99.90;;;;;;5052129;28;20061;-79
2021/04/25 02:25:30;;;;;;;4.53;2.35;;;9.80;99.90;;;;;;5052694;28;20482;-79
2021/04/25 02:27:57;;;;;;;3.75;1.85;;;10.00;99.90;;;;;;5040362;28;20045;-79
2021/04/25 02:30:28;;;;;;;2.47;2.28;;;10.00;99.90;;;;;;5032791;28;20506;-79
2021/04/25 02:32:55;;;;;;;2.30;2.10;;;9.90;99.90;;;;;;5051548;28;20506;-79
2021/04/25 02:35:22;;;;;;;3.15;2.40;;;9.40;99.90;;;;;;5052791;28;20044;-79
2021/04/25 02:37:49;;;;;;;2.58;2.38;;;9.30;99.90;;;;;;5047860;28;20029;-79
2021/04/25 02:40:18;;;;;;;3.63;2.00;;;9.50;99.90;;;;;;5032098;28;20029;-79
2021/04/25 02:42:45;;;;;;;7.20;1.92;;;9.70;99.90;;;;;;5032823;28;20459;-79
2021/04/25 02:45:15;;;;;;;3.33;1.77;;;9.90;99.90;;;;;;5031492;28;20057;-79
2021/04/25 02:47:49;;;;;;;1.83;1.70;;;10.00;99.90;;;;;;5032577;28;20384;-79
2021/04/25 02:50:16;;;;;;;4.40;2.25;;;9.90;99.90;;;;;;5032487;28;20029;-79
2021/04/25 02:52:42;;;;;;;2.83;2.00;;;9.80;99.90;;;;;;5032507;28;20464;-79
2021/04/25 02:55:09;;;;;;;2.28;2.10;;;9.90;99.90;;;;;;5032336;28;20071;-79
2021/04/25 02:57:35;;;;;;;4.88;2.55;;;9.60;99.90;;;;;;5032372;28;20754;-79
2021/04/25 03:00:03;;;;;;;2.70;2.45;;;9.40;99.90;;;;;;5032297;28;20068;-79
2021/04/25 03:02:29;;;;;;;3.60;2.50;;;9.60;99.90;;;;;;5032306;28;20025;-79
2021/04/25 03:04:55;;;;;;;3.10;2.60;;;9.80;99.90;;;;;;5031108;28;20480;-79
2021/04/25 03:07:21;;;;;;;2.35;1.83;;;9.80;99.90;;;;;;5032126;28;20072;-79
2021/04/25 03:09:47;;;;;;;2.17;1.98;;;10.00;99.90;;;;;;5031189;28;20025;-79
2021/04/25 03:12:13;;;;;;;3.88;2.60;;;9.80;99.90;;;;;;5032144;28;20151;-79
2021/04/25 03:14:38;;;;;;;3.20;2.90;;;9.60;99.90;;;;;;5032117;28;20025;-79
2021/04/25 03:17:04;;;;;;;4.43;2.83;;;9.70;99.90;;;;;;5032247;28;20027;-79
2021/04/25 03:19:30;;;;;;;4.43;2.40;;;9.60;99.90;;;;;;5031323;28;20040;-79
2021/04/25 03:21:56;;;;;;;3.22;2.83;;;9.60;99.90;;;;;;5031602;28;20025;-79
2021/04/25 03:24:22;;;;;;;2.28;2.08;;;9.50;99.90;;;;;;5030402;28;20018;-79
2021/04/25 03:26:48;;;;;;;3.50;2.53;;;9.50;99.90;;;;;;5031972;28;20025;-79
2021/04/25 03:29:14;;;;;;;3.25;2.30;;;9.30;99.90;;;;;;5031946;28;20025;-79
2021/04/25 03:31:40;;;;;;;2.78;2.22;;;9.20;99.90;;;;;;5031867;28;20446;-79
2021/04/25 03:34:05;;;;;;;2.35;2.15;;;9.20;99.90;;;;;;5032042;28;20021;-79
2021/04/25 03:36:31;;;;;;;2.88;2.55;;;9.30;99.90;;;;;;5031765;28;20029;-79
2021/04/25 03:38:57;;;;;;;3.75;2.63;;;9.20;99.90;;;;;;5035957;28;20372;-79
2021/04/25 03:41:23;;;;;;;2.55;2.33;;;9.10;99.90;;;;;;5030437;28;20026;-79
2021/04/25 03:43:49;;;;;;;2.90;2.60;;;9.00;99.90;;;;;;5031763;28;20536;-79
2021/04/25 03:46:14;;;;;;;3.70;3.10;;;8.90;99.90;;;;;;5031911;28;20414;-79
2021/04/25 03:48:40;;;;;;;2.78;2.53;;;8.90;99.90;;;;;;5031508;28;20116;-79
2021/04/25 03:51:06;;;;;;;2.88;2.50;;;8.80;99.90;;;;;;5031677;28;20034;-79
2021/04/25 03:53:32;;;;;;;3.10;2.80;;;8.80;99.90;;;;;;5031411;28;20033;-79
2021/04/25 03:55:57;;;;;;;6.50;2.70;;;8.80;99.90;;;;;;5031620;28;20049;-79
2021/04/25 03:58:23;;;;;;;3.17;2.15;;;8.90;99.90;;;;;;5045808;28;20037;-79
2021/04/25 04:00:49;;;;;;;3.53;2.30;;;8.90;99.90;;;;;;5051362;28;20049;-79
2021/04/25 04:03:14;;;;;;;2.50;2.30;;;8.70;99.90;;;;;;5049505;28;20044;-79
2021/04/25 04:05:40;;;;;;;3.33;2.25;;;8.80;99.90;;;;;;5051183;28;20513;-79
2021/04/25 04:08:06;;;;;;;3.22;2.50;;;8.70;99.90;;;;;;5051187;28;20055;-79
2021/04/25 04:10:32;;;;;;;2.92;2.10;;;8.70;99.90;;;;;;5051327;28;20033;-79
2021/04/25 04:12:57;;;;;;;5.57;2.17;;;8.60;99.90;;;;;;5051389;28;20414;-79
2021/04/25 04:15:23;;;;;;;4.18;2.20;;;8.30;99.90;;;;;;5051510;28;20552;-79
2021/04/25 04:17:49;;;;;;;8.02;2.42;;;8.20;99.90;;;;;;5051106;28;20025;-79
2021/04/25 04:20:15;;;;;;;3.13;2.92;;;8.20;99.90;;;;;;5051377;28;20033;-79
2021/04/25 04:22:41;;;;;;;2.42;2.10;;;8.30;99.90;;;;;;5050884;28;20033;-79
2021/04/25 04:25:07;;;;;;;4.13;2.30;;;8.20;99.90;;;;;;5051264;28;20033;-79
2021/04/25 04:27:33;;;;;;;4.35;2.88;;;8.30;99.90;;;;;;5049263;28;20402;-79
2021/04/25 04:29:59;;;;;;;4.50;2.42;;;8.30;99.90;;;;;;5051530;28;20029;-79
2021/04/25 04:32:24;;;;;;;5.72;2.95;;;8.20;99.90;;;;;;5050054;28;20037;-79
2021/04/25 04:34:50;;;;;;;3.53;2.40;;;8.30;99.90;;;;;;5050977;28;20021;-79
2021/04/25 04:37:16;;;;;;;3.92;2.50;;;8.30;99.90;;;;;;5050124;28;20029;-79
2021/04/25 04:39:42;;;;;;;3.17;2.30;;;8.30;99.90;;;;;;5034874;28;20079;-79
2021/04/25 04:42:07;;;;;;;6.35;2.78;;;8.40;99.90;;;;;;5035114;28;20051;-79
2021/04/25 04:44:33;;;;;;;2.95;2.50;;;8.40;99.90;;;;;;5034936;28;20025;-79
2021/04/25 04:46:59;;;;;;;2.50;2.30;;;8.40;99.90;;;;;;5034896;28;20033;-79
2021/04/25 04:49:25;;;;;;;6.55;2.58;;;8.50;99.90;;;;;;5034807;28;20025;-79
2021/04/25 04:51:50;;;;;;;2.92;2.47;;;8.30;99.90;;;;;;5033140;28;20025;-79
2021/04/25 04:54:16;;;;;;;2.50;2.30;;;8.20;99.90;;;;;;5034885;28;20033;-79
2021/04/25 04:56:42;;;;;;;3.78;2.15;;;8.50;99.90;;;;;;5034469;28;20063;-79
2021/04/25 04:59:07;;;;;;;6.32;2.60;;;8.50;99.90;;;;;;5035887;28;20025;-79
2021/04/25 05:01:34;;;;;;;4.78;2.25;;;8.60;99.90;;;;;;5034457;28;20115;-79
2021/04/25 05:04:00;;;;;;;2.65;1.85;;;8.70;99.90;;;;;;5034438;28;20014;-79
2021/04/25 05:06:26;;;;;;;3.15;2.58;;;8.50;99.90;;;;;;5034426;28;20079;-79
2021/04/25 05:08:51;;;;;;;2.90;1.88;;;8.40;99.90;;;;;;5034496;28;20028;-79
2021/04/25 05:11:17;;;;;;;2.60;2.40;;;8.40;99.90;;;;;;5034416;28;20031;-79
2021/04/25 05:13:43;;;;;;;3.15;2.53;;;8.40;99.90;;;;;;5034498;28;20060;-79
2021/04/25 05:16:09;;;;;;;5.18;2.58;;;8.80;99.90;;;;;;5034413;28;20049;-79
2021/04/25 05:18:37;;;;;;;2.40;2.20;;;8.90;99.90;;;;;;5034503;28;20437;-79
2021/04/25 05:21:03;;;;;;;2.97;2.30;;;8.90;99.90;;;;;;5033957;28;20033;-79
2021/04/25 05:23:29;;;;;;;3.30;2.80;;;9.10;99.90;;;;;;5034419;28;20025;-79
2021/04/25 05:25:55;;;;;;;2.50;2.25;;;8.90;99.90;;;;;;5034058;28;20399;-79
2021/04/25 05:28:20;;;;;;;3.15;2.90;;;8.90;99.90;;;;;;5046195;28;20036;-79
2021/04/25 05:30:46;;;;;;;4.38;2.42;;;9.10;99.90;;;;;;5054043;28;20071;-79
2021/04/25 05:33:12;;;;;;;3.28;2.53;;;9.20;99.90;;;;;;5052725;28;20473;-79
2021/04/25 05:35:38;;;;;;;7.25;3.63;;;9.40;99.90;;;;;;5053589;28;20372;-79
2021/04/25 05:38:03;;;;;;;5.90;3.58;;;9.50;99.90;;;;;;5040574;28;20022;-79
2021/04/25 05:40:29;;;;;;;8.00;4.30;;;9.60;99.90;;;;;;5033889;28;20045;-79
2021/04/25 05:42:55;;;;;;;4.13;2.92;;;9.70;99.90;;;;;;5033807;28;20030;-79
2021/04/25 05:45:21;;;;;;;2.97;2.58;;;9.90;99.90;;;;;;5032245;28;20025;-79
2021/04/25 05:47:55;;;;;;;2.63;2.42;;;9.80;99.90;;;;;;5033793;28;20083;-79
2021/04/25 05:50:23;;;;;;;7.35;3.35;;;9.50;99.90;;;;;;5033325;28;20044;-79
2021/04/25 05:52:49;;;;;;;4.20;3.40;;;9.50;99.90;;;;;;5033754;28;20101;-79
2021/04/25 05:55:16;;;;;;;3.65;3.28;;;9.70;99.90;;;;;;5033531;28;20104;-79
2021/04/25 05:57:43;;;;;;;3.47;3.17;;;9.80;99.90;;;;;;5034365;28;20459;-79
2021/04/25 06:00:13;;;;;;;11.18;5.30;;;9.90;99.90;;;;;;5034628;28;20136;-79
2021/04/25 06:02:38;;;;;;;2.92;2.55;;;10.00;99.90;;;;;;5032383;28;20079;-79
2021/04/25 06:05:05;;;;;;;2.85;2.60;;;10.20;99.90;;;;;;5035150;28;20037;-79
2021/04/25 06:07:31;;;;;;;3.92;2.30;;;10.40;99.90;;;;;;5035982;28;20060;-79
2021/04/25 06:09:57;;;;;;;3.72;2.13;;;10.60;99.90;;;;;;5032605;28;20072;-79
2021/04/25 06:12:22;;;;;;;3.72;2.30;;;10.60;99.90;;;;;;5031963;28;20101;-79
2021/04/25 06:14:48;;;;;;;5.22;2.40;;;10.70;99.90;;;;;;5032147;28;20024;-79
2021/04/25 06:17:14;;;;;;;2.40;2.20;;;10.80;99.90;;;;;;5033486;28;20036;-79
2021/04/25 06:19:40;;;;;;;5.13;3.17;;;10.90;99.90;;;;;;5034690;28;20024;-79
2021/04/25 06:22:06;;;;;;;4.30;2.75;;;10.90;99.90;;;;;;5031532;28;20503;-79
2021/04/25 06:24:32;;;;;;;4.38;2.50;;;10.10;99.90;;;;;;5034711;28;20025;-79
2021/04/25 06:26:58;;;;;;;3.63;2.70;;;10.30;99.90;;;;;;5028407;28;20074;-79
2021/04/25 06:29:24;;;;;;;3.25;2.88;;;10.60;99.90;;;;;;5031373;28;20056;-79
2021/04/25 06:31:51;;;;;;;3.13;2.47;;;10.90;99.90;;;;;;5031407;28;20045;-79
2021/04/25 06:34:17;;;;;;;2.97;2.72;;;10.90;99.90;;;;;;5031102;28;20543;-79
2021/04/25 06:36:43;;;;;;;12.40;2.75;;;10.80;99.90;;;;;;5044330;28;20119;-79
2021/04/25 06:39:10;;;;;;;3.75;3.10;;;10.40;99.90;;;;;;5050036;28;20061;-79
2021/04/25 06:41:37;;;;;;;6.55;2.72;;;10.60;99.90;;;;;;5037120;28;20022;-78
2021/04/25 06:44:03;;;;;;;3.92;2.88;;;10.90;99.90;;;;;;5045638;28;20144;-78
2021/04/25 06:46:30;;;;;;;3.95;2.40;;;11.20;99.90;;;;;;5050628;28;20024;-78
2021/04/25 06:48:56;;;;;;;6.25;3.13;;;11.40;99.90;;;;;;5050594;28;20095;-78
2021/04/25 06:51:22;;;;;;;3.50;2.85;;;11.70;99.90;;;;;;5036741;28;20039;-78
2021/04/25 06:53:48;;;;;;;2.92;2.47;;;11.80;99.90;;;;;;5030202;28;20368;-78
2021/04/25 06:56:14;;;;;;;4.05;2.67;;;11.50;99.90;;;;;;5030283;28;20415;-78
2021/04/25 06:58:39;;;;;;;3.00;2.70;;;11.40;99.90;;;;;;5050770;28;20021;-78
2021/04/25 07:01:05;;;;;;;3.90;2.55;;;11.50;99.90;;;;;;5045059;28;20396;-78
2021/04/25 07:03:31;;;;;;;3.58;3.28;;;11.40;99.90;;;;;;5038840;28;20033;-78
2021/04/25 07:05:57;;;;;;;3.85;2.88;;;11.30;99.90;;;;;;5048758;28;20021;-78
2021/04/25 07:08:23;;;;;;;3.42;2.60;;;11.20;99.90;;;;;;5051539;28;20027;-78
2021/04/25 07:10:53;;;;;;;3.75;2.40;;;11.30;99.90;;;;;;5039007;28;20037;-78
2021/04/25 07:13:19;;;;;;;6.28;3.40;;;11.60;99.90;;;;;;5032356;28;20040;-78
2021/04/25 07:15:45;;;;;;;3.58;2.50;;;11.90;99.90;;;;;;5032272;28;20105;-78
2021/04/25 07:18:11;;;;;;;4.28;2.58;;;12.00;99.90;;;;;;5046961;28;20056;-78
2021/04/25 07:20:37;;;;;;;2.80;1.80;;;12.00;99.90;;;;;;5035196;28;20045;-78
2021/04/25 07:23:04;;;;;;;2.35;2.08;;;12.20;99.90;;;;;;5034827;28;20030;-78
2021/04/25 07:25:30;;;;;;;3.05;1.83;;;12.30;99.90;;;;;;5052370;28;20072;-78
2021/04/25 07:27:56;;;;;;;4.05;2.08;;;12.50;99.90;;;;;;5051154;28;20441;-78
2021/04/25 07:30:23;;;;;;;3.22;1.75;;;12.50;99.90;;;;;;5041448;28;20025;-78
2021/04/25 07:32:49;;;;;;;1.98;1.60;;;12.50;99.90;;;;;;5031977;28;20029;-78
2021/04/25 07:35:16;;;;;;;3.05;2.30;;;12.60;99.90;;;;;;5032475;28;20022;-78
2021/04/25 07:37:43;;;;;;;3.88;2.00;;;12.60;99.90;;;;;;5046264;28;20022;-78
2021/04/25 07:40:11;;;;;;;2.33;1.88;;;12.60;99.90;;;;;;5041248;28;20029;-78
2021/04/25 07:42:38;;;;;;;4.05;2.10;;;12.60;99.90;;;;;;5033669;28;20091;-78
2021/04/25 07:45:07;;;;;;;4.22;2.13;;;12.70;99.90;;;;;;5042541;28;20025;-79
2021/04/25 07:47:33;;;;;;;2.80;1.97;;;12.80;99.90;;;;;;5052718;28;20395;-78
2021/04/25 07:49:59;;;;;;;2.90;2.05;;;12.80;99.90;;;;;;5051214;28;20283;-78
2021/04/25 07:52:25;;;;;;;5.00;2.55;;;12.90;99.90;;;;;;5040105;28;20029;-78
2021/04/25 07:54:50;;;;;;;2.40;2.00;;;13.00;99.90;;;;;;5038878;28;20163;-78
2021/04/25 07:57:16;;;;;;;4.05;2.47;;;13.20;99.90;;;;;;5032279;28;20045;-78
2021/04/25 07:59:42;;;;;;;3.00;2.00;;;13.00;99.90;;;;;;5031499;28;20037;-78
2021/04/25 08:02:08;;;;;;;3.65;2.72;;;13.10;99.90;;;;;;5032140;28;20434;-78
2021/04/25 08:04:34;;;;;;;4.32;2.17;;;13.10;99.90;;;;;;5039001;28;20033;-78
2021/04/25 08:07:00;;;;;;;3.00;2.13;;;13.10;99.90;;;;;;5039301;28;20136;-78
2021/04/25 08:09:26;;;;;;;3.80;2.20;;;13.20;99.90;;;;;;5039346;28;20061;-78
2021/04/25 08:11:54;;;;;;;3.25;2.20;;;13.30;99.90;;;;;;5032768;28;20584;-78
2021/04/25 08:14:20;;;;;;;2.75;1.95;;;13.30;99.90;;;;;;5034767;28;20021;-78
2021/04/25 08:16:46;;;;;;;3.88;2.65;;;13.30;99.90;;;;;;5040165;28;20035;-78
2021/04/25 08:19:11;;;;;;;8.52;2.28;;;13.30;99.90;;;;;;5042152;28;20029;-78
2021/04/25 08:21:38;;;;;;;5.63;2.70;;;13.40;99.90;;;;;;5041584;28;20025;-78
2021/04/25 08:24:04;;;;;;;4.13;2.80;;;13.30;99.90;;;;;;5041102;28;20055;-78
2021/04/25 08:26:30;;;;;;;2.38;1.90;;;13.30;99.90;;;;;;5045310;28;20113;-78
2021/04/25 08:28:56;;;;;;;3.35;1.73;;;13.30;99.90;;;;;;5047943;28;20104;-79
2021/04/25 08:31:21;;;;;;;4.70;2.50;;;13.30;99.90;;;;;;5038367;28;20129;-78
2021/04/25 08:33:48;;;;;;;3.78;1.92;;;13.40;99.90;;;;;;5034636;28;20067;-78
2021/04/25 08:36:15;;;;;;;4.97;2.15;;;13.30;99.90;;;;;;5035485;28;20032;-78
2021/04/25 08:38:41;;;;;;;2.28;1.95;;;13.20;99.90;;;;;;5043995;28;20463;-78
2021/04/25 08:41:11;;;;;;;2.42;1.92;;;13.20;99.90;;;;;;5037771;28;20021;-78
2021/04/25 08:43:41;;;;;;;7.75;2.35;;;13.20;99.90;;;;;;5033345;28;20029;-78
2021/04/25 08:46:08;;;;;;;2.65;2.28;;;13.20;99.90;;;;;;5034240;28;20029;-78
2021/04/25 08:48:35;;;;;;;3.03;1.60;;;13.30;99.90;;;;;;5035028;28;20402;-78
2021/04/25 08:51:01;;;;;;;2.47;1.83;;;13.30;99.90;;;;;;5040035;28;20017;-78
2021/04/25 08:53:27;;;;;;;3.13;2.15;;;13.30;99.90;;;;;;5033844;28;20075;-78
2021/04/25 08:55:53;;;;;;;2.40;2.10;;;13.20;99.90;;;;;;5042289;28;20067;-78
2021/04/25 08:58:21;;;;;;;2.00;1.80;;;13.30;99.90;;;;;;5040255;28;20033;-78
2021/04/25 09:00:47;;;;;;;2.78;1.98;;;13.50;99.90;;;;;;5035790;28;20033;-78
2021/04/25 09:03:15;;;;;;;4.80;3.20;;;13.50;99.90;;;;;;5041861;28;20086;-78
2021/04/25 09:05:43;;;;;;;3.47;2.25;;;13.50;99.90;;;;;;5037992;28;20028;-78
2021/04/25 09:08:12;;;;;;;2.67;2.40;;;13.60;99.90;;;;;;5040458;28;20558;-78
2021/04/25 09:10:43;;;;;;;3.53;2.10;;;13.60;99.90;;;;;;5069749;28;20483;-78
2021/04/25 09:13:29;;;;;;;4.40;2.35;;;13.60;99.90;;;;;;5050672;28;20364;-78
2021/04/25 09:15:57;;;;;;;3.40;2.50;;;13.70;99.90;;;;;;5078792;28;20052;-79
2021/04/25 09:18:33;;;;;;;2.20;1.83;;;13.80;99.90;;;;;;5034545;28;20036;-79
2021/04/25 09:21:11;;;;;;;6.70;2.38;;;13.90;99.90;;;;;;5033827;28;20100;-78
2021/04/25 09:23:37;;;;;;;2.83;2.28;;;13.90;99.90;;;;;;5034647;28;20044;-78
2021/04/25 09:26:05;;;;;;;4.00;2.05;;;13.90;99.90;;;;;;5034348;28;20021;-78
2021/04/25 09:28:36;;;;;;;5.72;2.47;;;13.80;99.90;;;;;;5049805;28;20182;-78
2021/04/25 09:31:14;;;;;;;2.67;2.38;;;13.80;99.90;;;;;;5035014;28;20028;-78
2021/04/25 09:33:57;;;;;;;5.47;2.42;;;13.70;99.90;;;;;;5035809;28;20021;-78
2021/04/25 09:36:26;;;;;;;3.50;2.35;;;13.80;99.90;;;;;;5035545;28;20036;-78
2021/04/25 09:38:53;;;;;;;3.33;2.22;;;13.70;99.90;;;;;;5035391;28;20025;-78
2021/04/25 09:41:30;;;;;;;3.33;2.53;;;13.70;99.90;;;;;;5041840;28;20498;-78
2021/04/25 09:43:57;;;;;;;5.22;2.78;;;13.70;99.90;;;;;;5048317;28;20025;-78
2021/04/25 09:46:22;;;;;;;3.42;2.47;;;13.60;99.90;;;;;;5036260;28;20028;-78
2021/04/25 09:48:48;;;;;;;3.25;2.25;;;13.50;99.90;;;;;;5048512;28;20446;-78
2021/04/25 09:51:22;;;;;;;2.95;2.30;;;13.50;99.90;;;;;;5044790;28;20028;-78
2021/04/25 09:53:54;;;;;;;2.50;1.98;;;13.40;99.90;;;;;;5034601;28;20388;-78
2021/04/25 09:56:35;;;;;;;8.93;3.70;;;13.40;99.90;;;;;;5033885;28;20101;-78
2021/04/25 09:59:06;;;;;;;7.32;2.38;;;13.30;99.90;;;;;;5031143;28;20033;-78
2021/04/25 10:01:42;;;;;;;8.23;3.22;;;13.30;99.90;;;;;;5041971;28;20048;-78
2021/04/25 10:04:31;;;;;;;7.70;3.30;;;13.20;99.90;;;;;;5039924;28;20033;-78
2021/04/25 10:06:58;;;;;;;4.15;2.67;;;13.00;99.90;;;;;;5034679;28;20025;-79
2021/04/25 10:09:25;;;;;;;4.60;3.08;;;12.90;99.90;;;;;;5041412;28;20573;-79
2021/04/25 10:11:52;;;;;;;6.88;3.25;;;12.90;99.90;;;;;;5036749;28;20418;-79
2021/04/25 10:14:19;;;;;;;12.52;4.72;;;12.90;99.90;;;;;;5041410;28;20021;-79
2021/04/25 10:16:45;;;;;;;6.85;3.92;;;12.90;99.90;;;;;;5035043;28;20043;-79
2021/04/25 10:19:12;;;;;;;9.02;4.20;;;12.90;99.90;;;;;;5038768;28;20045;-79
2021/04/25 10:21:38;;;;;;;3.33;3.03;;;13.00;99.90;;;;;;5041828;28;20025;-79
2021/04/25 10:24:08;;;;;;;5.05;3.17;;;13.00;99.90;;;;;;5041724;28;20025;-78
2021/04/25 10:27:00;;;;;;;6.13;3.22;;;13.00;99.90;;;;;;5034630;28;20513;-78
2021/04/25 10:29:34;;;;;;;4.50;2.90;;;13.10;99.90;;;;;;5020304;28;20116;-79
2021/04/25 10:32:03;;;;;;;4.20;3.00;;;13.10;99.90;;;;;;5044061;28;20033;-79
2021/04/25 10:34:30;;;;;;;4.43;3.20;;;13.00;99.90;;;;;;5040256;28;20059;-79
2021/04/25 10:36:59;;;;;;;5.50;3.13;;;13.00;99.90;;;;;;5038847;28;20072;-79
2021/04/25 10:40:17;;;;;;;5.40;3.35;;;13.20;99.90;;;;;;5040580;28;20025;-78
2021/04/25 10:42:54;;;;;;;3.85;2.63;;;13.40;99.90;;;;;;5011225;28;20021;-79
2021/04/25 10:45:25;;;;;;;5.82;3.72;;;13.40;99.90;;;;;;5031010;28;20052;-79
2021/04/25 10:48:32;;;;;;;3.80;3.00;;;13.20;99.90;;;;;;5030191;28;20045;-78
2021/04/25 10:51:08;;;;;;;3.80;3.25;;;13.20;99.90;;;;;;5030711;28;20128;-78
2021/04/25 10:53:37;;;;;;;5.15;2.70;;;13.20;99.90;;;;;;5030377;28;20376;-78
2021/04/25 10:56:22;;;;;;;7.97;3.28;;;13.20;99.90;;;;;;5014054;28;20041;-78
2021/04/25 10:59:08;;;;;;;3.47;3.17;;;13.20;99.90;;;;;;5030522;28;20030;-78
2021/04/25 11:01:37;;;;;;;4.40;3.50;;;13.30;99.90;;;;;;5010691;28;20132;-78
2021/04/25 11:04:03;;;;;;;4.85;3.88;;;13.30;99.90;;;;;;5029925;28;20064;-79
2021/04/25 11:06:29;;;;;;;13.57;8.23;;;13.20;99.90;;;;;;5035755;28;20037;-78
2021/04/25 11:08:56;;;;;;;10.38;7.78;;;13.20;99.90;;;;;;5029878;28;20029;-78
2021/04/25 11:11:34;;;;;;;5.00;3.83;;;13.20;99.90;;;;;;5029603;28;20034;-78
2021/04/25 11:14:00;;;;;;;5.20;3.45;;;13.20;99.90;;;;;;5023286;28;20527;-78
2021/04/25 11:16:28;;;;;;;3.60;3.25;;;13.30;99.90;;;;;;5036879;28;20045;-78
2021/04/25 11:19:05;;;;;;;6.00;3.67;;;13.40;99.90;;;;;;5031488;28;20446;-78
2021/04/25 11:21:32;;;;;;;3.35;2.83;;;13.30;99.90;;;;;;5046275;28;20029;-78
2021/04/25 11:24:19;;;;;;;3.28;2.83;;;13.30;99.90;;;;;;5035332;28;20483;-78
2021/04/25 11:26:53;;;;;;;5.30;3.20;;;13.40;99.90;;;;;;5032574;28;20060;-78
2021/04/25 11:29:23;;;;;;;4.68;3.40;;;13.40;99.90;;;;;;5032605;28;20021;-78
2021/04/25 11:31:52;;;;;;;;;;;13.60;99.90;;;;;;5033070;28;20033;-79
2021/04/25 11:34:32;;;;;;;4.03;3.63;;;13.80;99.90;;;;;;5032106;28;20274;-78
2021/04/25 11:37:21;;;;;;;4.40;4.00;;;14.10;99.90;;;;;;5031984;28;20044;-78
2021/04/25 11:39:53;;;;;;;7.32;5.18;;;14.50;99.90;;;;;;5034332;28;20029;-78
2021/04/25 11:42:33;;;;;;;4.70;3.83;;;15.50;99.90;;;;;;5035343;28;20024;-78
2021/04/25 11:45:06;;;;;;;4.80;3.25;;;16.50;99.90;;;;;;5052118;28;20029;-78
2021/04/25 11:47:32;;;;;;;5.88;3.42;;;16.60;99.90;;;;;;5046049;28;20445;-74
2021/04/25 11:50:00;;;;;;;3.92;2.85;;;16.00;99.90;;;;;;5031416;28;20033;-74
2021/04/25 11:52:32;;;;;;;4.55;3.55;;;15.70;99.90;;;;;;5029582;28;20026;-73
2021/04/25 11:54:59;;;;;;;5.18;4.10;;;15.50;99.90;;;;;;5030933;28;20083;-74
2021/04/25 11:57:27;;;;;;;3.25;2.83;;;15.90;99.90;;;;;;5032937;28;20034;-74
2021/04/25 11:59:56;;;;;;;5.90;2.92;;;15.70;99.90;;;;;;5033700;28;20037;-74
2021/04/25 12:02:46;;;;;;;5.00;4.43;;;15.80;99.90;;;;;;5035912;28;20396;-78
2021/04/25 12:05:22;;;;;;;6.03;5.43;;;15.90;99.90;;;;;;5040237;28;20095;-74
2021/04/25 12:07:57;;;;;;;5.00;3.03;;;16.20;99.90;;;;;;5038154;28;20553;-75
2021/04/25 12:10:36;;;;;;;5.10;3.22;;;16.50;99.90;;;;;;5043736;28;20043;-75
2021/04/25 12:13:09;;;;;;;5.45;2.50;;;16.90;99.90;;;;;;5041025;28;20017;-75
2021/04/25 12:15:47;;;;;;;3.20;2.70;;;17.10;99.90;;;;;;5066611;28;20527;-75
2021/04/25 12:18:14;;;;;;;3.05;2.15;;;16.80;99.90;;;;;;5045407;28;20042;-75
2021/04/25 12:20:41;;;;;;;3.45;3.15;;;16.50;99.90;;;;;;5046328;28;20037;-75
2021/04/25 12:23:10;;;;;;;3.95;2.70;;;16.60;99.90;;;;;;5041555;28;20032;-75
2021/04/25 12:25:36;;;;;;;4.85;2.92;;;16.50;99.90;;;;;;5029179;28;20491;-75
2021/04/25 12:28:02;;;;;;;3.33;2.92;;;16.50;99.90;;;;;;5044745;28;20137;-75
2021/04/25 12:30:30;;;;;;;5.53;2.67;;;16.40;99.90;;;;;;5036533;28;20364;-75
2021/04/25 12:33:06;;;;;;;4.63;2.55;;;16.40;99.90;;;;;;5044240;28;20029;-75
2021/04/25 12:35:35;;;;;;;3.72;2.60;;;17.00;99.90;;;;;;5041860;28;20036;-75
2021/04/25 12:38:33;;;;;;;4.82;2.17;;;17.70;98.70;;;;;;5072762;28;20033;-75
2021/04/25 12:41:07;;;;;;;3.13;2.40;;;17.70;99.80;;;;;;5031426;28;20033;-75
2021/04/25 12:43:46;;;;;;;3.75;2.35;;;17.60;99.90;;;;;;5038478;28;20041;-75
2021/04/25 12:46:28;;;;;;;4.20;2.67;;;18.00;98.40;;;;;;5040267;28;20055;-75
2021/04/25 12:49:05;;;;;;;5.72;3.72;;;18.50;98.30;;;;;;5032200;28;20052;-75
2021/04/25 12:51:44;;;;;;;6.53;6.03;;;18.40;96.50;;;;;;5042068;28;20513;-75
2021/04/25 12:54:18;;;;;;;8.48;7.57;;;18.40;96.40;;;;;;5027998;28;20475;-76
2021/04/25 12:56:52;;;;;;;6.35;5.80;;;18.60;96.40;;;;;;5032321;28;20033;-76